createdAt,value
2023-02-22T00:01:51.239Z,3.70
2023-02-22T00:04:21.224Z,6.00
2023-02-22T00:06:48.995Z,3.50
2023-02-22T00:09:20.613Z,3.40
2023-02-22T00:11:48.080Z,3.40
2023-02-22T00:14:14.788Z,3.40
2023-02-22T00:16:41.523Z,3.30
2023-02-22T00:19:08.659Z,3.20
2023-02-22T00:21:35.290Z,3.10
2023-02-22T00:24:16.956Z,3.10
2023-02-22T00:26:43.635Z,3.10
2023-02-22T00:29:10.227Z,3.00
2023-02-22T00:31:37.729Z,3.10
2023-02-22T00:34:04.347Z,3.10
2023-02-22T00:36:30.928Z,3.10
2023-02-22T00:38:57.538Z,3.10
2023-02-22T00:41:24.215Z,3.20
2023-02-22T00:43:50.817Z,3.30
2023-02-22T00:46:17.371Z,3.40
2023-02-22T00:48:44.570Z,3.50
2023-02-22T00:51:11.155Z,3.50
2023-02-22T00:53:37.743Z,4.40
2023-02-22T00:56:04.540Z,3.50
2023-02-22T00:58:32.046Z,3.50
2023-02-22T01:00:58.737Z,3.60
2023-02-22T01:03:25.472Z,3.60
2023-02-22T01:05:52.102Z,3.60
2023-02-22T01:08:18.844Z,3.70
2023-02-22T01:10:46.615Z,3.70
2023-02-22T01:13:13.314Z,3.60
2023-02-22T01:15:41.298Z,3.50
2023-02-22T01:18:08.472Z,3.40
2023-02-22T01:20:35.235Z,3.30
2023-02-22T01:23:03.649Z,3.10
2023-02-22T01:25:31.404Z,3.10
2023-02-22T01:27:58.963Z,3.10
2023-02-22T01:30:27.469Z,3.10
2023-02-22T01:32:54.495Z,3.10
2023-02-22T01:35:23.794Z,3.20
2023-02-22T01:37:50.489Z,3.30
2023-02-22T01:40:21.893Z,3.40
2023-02-22T01:42:51.543Z,3.30
2023-02-22T01:45:30.699Z,3.30
2023-02-22T01:48:01.009Z,3.30
2023-02-22T01:50:27.966Z,3.30
2023-02-22T01:52:54.781Z,3.30
2023-02-22T01:55:21.558Z,3.30
2023-02-22T01:57:48.574Z,3.20
2023-02-22T02:00:17.236Z,3.20
2023-02-22T02:02:45.526Z,3.10
2023-02-22T02:05:12.788Z,3.10
2023-02-22T02:07:39.749Z,3.10
2023-02-22T02:10:14.527Z,5.90
2023-02-22T02:12:46.392Z,2.90
2023-02-22T02:15:25.183Z,2.80
2023-02-22T02:17:53.170Z,2.80
2023-02-22T02:20:24.107Z,2.70
2023-02-22T02:23:09.480Z,2.70
2023-02-22T02:25:42.197Z,2.60
2023-02-22T02:28:30.888Z,2.60
2023-02-22T02:31:19.629Z,2.60
2023-02-22T02:34:05.000Z,2.60
2023-02-22T02:36:34.590Z,2.60
2023-02-22T02:39:17.413Z,2.60
2023-02-22T02:41:46.534Z,2.60
2023-02-22T02:44:15.893Z,2.60
2023-02-22T02:46:48.746Z,2.60
2023-02-22T02:49:18.931Z,2.60
2023-02-22T02:51:48.990Z,2.60
2023-02-22T02:54:15.942Z,2.60
2023-02-22T02:56:45.493Z,2.70
2023-02-22T02:59:29.045Z,2.60
2023-02-22T03:02:14.857Z,2.50
2023-02-22T03:04:54.209Z,2.50
2023-02-22T03:07:39.055Z,2.50
2023-02-22T03:10:22.808Z,2.40
2023-02-22T03:13:01.150Z,2.40
2023-02-22T03:15:40.068Z,2.40
2023-02-22T03:18:08.814Z,2.50
2023-02-22T03:20:43.187Z,2.50
2023-02-22T03:23:27.439Z,2.60
2023-02-22T03:25:58.410Z,2.70
2023-02-22T03:28:26.665Z,2.80
2023-02-22T03:30:57.049Z,2.80
2023-02-22T03:33:28.823Z,2.70
2023-02-22T03:35:57.511Z,2.70
2023-02-22T03:38:25.725Z,2.60
2023-02-22T03:40:54.921Z,2.60
2023-02-22T03:43:24.918Z,2.50
2023-02-22T03:45:51.884Z,2.50
2023-02-22T03:48:36.478Z,2.50
2023-02-22T03:51:04.452Z,2.40
2023-02-22T03:53:32.401Z,2.40
2023-02-22T03:55:59.967Z,2.40
2023-02-22T03:58:29.620Z,2.30
2023-02-22T04:00:56.329Z,2.40
2023-02-22T04:03:23.148Z,2.30
2023-02-22T04:05:50.064Z,2.30
2023-02-22T04:08:17.066Z,2.30
2023-02-22T04:10:43.760Z,2.20
2023-02-22T04:13:10.728Z,2.20
2023-02-22T04:15:37.740Z,2.30
2023-02-22T04:18:04.620Z,2.30
2023-02-22T04:20:31.797Z,5.20
2023-02-22T04:22:58.362Z,2.40
2023-02-22T04:25:24.998Z,2.50
2023-02-22T04:27:52.073Z,2.60
2023-02-22T04:30:18.972Z,2.60
2023-02-22T04:32:45.634Z,2.60
2023-02-22T04:35:12.264Z,2.50
2023-02-22T04:37:38.873Z,2.40
2023-02-22T04:40:07.803Z,2.30
2023-02-22T04:42:35.297Z,2.20
2023-02-22T04:45:02.189Z,2.20
2023-02-22T04:47:28.790Z,2.10
2023-02-22T04:49:55.916Z,2.10
2023-02-22T04:52:22.651Z,2.10
2023-02-22T04:54:49.315Z,2.20
2023-02-22T04:57:15.849Z,2.00
2023-02-22T04:59:42.509Z,2.00
2023-02-22T05:02:09.068Z,2.00
2023-02-22T05:04:37.841Z,2.00
2023-02-22T05:07:04.705Z,1.90
2023-02-22T05:09:31.263Z,3.40
2023-02-22T05:11:57.891Z,1.90
2023-02-22T05:14:27.638Z,1.90
2023-02-22T05:16:57.453Z,1.80
2023-02-22T05:19:24.510Z,1.80
2023-02-22T05:21:51.084Z,1.90
2023-02-22T05:24:17.679Z,1.80
2023-02-22T05:26:44.988Z,1.80
2023-02-22T05:29:11.886Z,1.90
2023-02-22T05:31:38.622Z,1.90
2023-02-22T05:34:05.301Z,1.80
2023-02-22T05:36:31.886Z,1.80
2023-02-22T05:38:58.531Z,1.80
2023-02-22T05:41:25.086Z,1.70
2023-02-22T05:43:51.674Z,1.70
2023-02-22T05:46:18.449Z,1.70
2023-02-22T05:48:45.124Z,1.60
2023-02-22T05:51:12.079Z,1.60
2023-02-22T05:53:38.706Z,1.60
2023-02-22T05:56:05.498Z,1.50
2023-02-22T05:58:32.265Z,1.40
2023-02-22T06:00:59.932Z,1.40
2023-02-22T06:03:27.356Z,1.30
2023-02-22T06:05:53.987Z,1.30
2023-02-22T06:08:20.569Z,1.30
2023-02-22T06:10:47.197Z,1.20
2023-02-22T06:13:13.953Z,1.30
2023-02-22T06:15:40.592Z,3.20
2023-02-22T06:18:07.168Z,1.30
2023-02-22T06:20:35.458Z,1.30
2023-02-22T06:23:02.021Z,1.30
2023-02-22T06:25:31.369Z,1.40
2023-02-22T06:27:58.681Z,1.50
2023-02-22T06:30:26.103Z,1.50
2023-02-22T06:32:52.794Z,1.50
2023-02-22T06:35:19.581Z,0.20
2023-02-22T06:37:46.166Z,1.60
2023-02-22T06:40:13.273Z,1.60
2023-02-22T06:42:40.243Z,1.80
2023-02-22T06:45:07.236Z,1.80
2023-02-22T06:47:33.880Z,1.80
2023-02-22T06:50:01.036Z,1.80
2023-02-22T06:52:27.655Z,1.80
2023-02-22T06:54:54.285Z,1.80
2023-02-22T06:57:20.937Z,1.80
2023-02-22T06:59:47.650Z,1.80
2023-02-22T07:02:14.331Z,1.80
2023-02-22T07:04:43.282Z,1.90
2023-02-22T07:07:10.277Z,2.00
2023-02-22T07:09:36.932Z,1.90
2023-02-22T07:12:03.992Z,2.00
2023-02-22T07:14:30.738Z,2.10
2023-02-22T07:16:57.359Z,2.10
2023-02-22T07:19:24.757Z,2.20
2023-02-22T07:21:55.368Z,2.30
2023-02-22T07:24:21.949Z,2.40
2023-02-22T07:26:48.577Z,2.40
2023-02-22T07:29:15.133Z,2.50
2023-02-22T07:31:41.742Z,2.60
2023-02-22T07:34:08.413Z,2.70
2023-02-22T07:36:35.040Z,2.80
2023-02-22T07:39:01.740Z,2.80
2023-02-22T07:41:28.375Z,2.90
2023-02-22T07:43:54.922Z,2.90
2023-02-22T07:46:21.690Z,3.00
2023-02-22T07:48:48.256Z,3.00
2023-02-22T07:51:16.069Z,3.10
2023-02-22T07:53:42.901Z,3.20
2023-02-22T07:56:09.514Z,3.30
2023-02-22T07:58:36.102Z,3.40
2023-02-22T08:01:02.839Z,3.50
2023-02-22T08:03:31.305Z,3.50
2023-02-22T08:05:58.700Z,3.60
2023-02-22T08:08:25.329Z,3.60
2023-02-22T08:10:52.233Z,3.70
2023-02-22T08:13:19.108Z,3.80
2023-02-22T08:15:47.113Z,3.80
2023-02-22T08:18:15.282Z,3.90
2023-02-22T08:20:42.865Z,4.00
2023-02-22T08:23:10.194Z,4.10
2023-02-22T08:25:36.792Z,4.20
2023-02-22T08:28:07.970Z,4.30
2023-02-22T08:30:35.173Z,4.30
2023-02-22T08:33:03.128Z,4.50
2023-02-22T08:35:30.416Z,4.60
2023-02-22T08:37:58.737Z,4.60
2023-02-22T08:40:26.287Z,4.80
2023-02-22T08:42:53.187Z,4.80
2023-02-22T08:45:20.240Z,4.90
2023-02-22T08:47:46.987Z,4.90
2023-02-22T08:50:35.713Z,5.00
2023-02-22T08:53:03.196Z,5.10
2023-02-22T08:55:32.828Z,5.10
2023-02-22T08:58:01.384Z,5.30
2023-02-22T09:00:29.623Z,5.30
2023-02-22T09:02:56.262Z,5.40
2023-02-22T09:05:23.158Z,5.50
2023-02-22T09:07:49.827Z,5.60
2023-02-22T09:10:24.496Z,5.80
2023-02-22T09:12:51.939Z,6.00
2023-02-22T09:15:18.951Z,6.20
2023-02-22T09:17:45.671Z,6.40
2023-02-22T09:20:12.445Z,6.60
2023-02-22T09:22:39.366Z,6.80
2023-02-22T09:25:16.288Z,7.00
2023-02-22T09:27:44.068Z,7.20
2023-02-22T09:30:23.882Z,7.50
2023-02-22T09:32:55.132Z,7.70
2023-02-22T09:35:27.133Z,7.90
2023-02-22T09:37:55.204Z,8.10
2023-02-22T09:40:25.188Z,8.40
2023-02-22T09:42:56.442Z,8.50
2023-02-22T09:45:27.485Z,8.70
2023-02-22T09:47:58.610Z,9.60
2023-02-22T09:50:35.735Z,9.10
2023-02-22T09:53:04.384Z,9.30
2023-02-22T09:55:50.722Z,10.40
2023-02-22T09:58:22.749Z,9.60
2023-02-22T10:00:51.529Z,9.70
2023-02-22T10:03:25.484Z,9.80
2023-02-22T10:05:56.942Z,9.80
2023-02-22T10:08:31.174Z,10.00
2023-02-22T10:11:06.055Z,10.10
2023-02-22T10:13:52.927Z,10.30
2023-02-22T10:16:33.480Z,10.50
2023-02-22T10:19:18.886Z,10.50
2023-02-22T10:21:50.112Z,10.60
2023-02-22T10:24:24.684Z,10.70
2023-02-22T10:26:51.894Z,10.70
2023-02-22T10:29:39.939Z,10.90
2023-02-22T10:32:08.824Z,10.90
2023-02-22T10:34:45.628Z,12.20
2023-02-22T10:37:29.532Z,11.10
2023-02-22T10:40:13.253Z,11.20
2023-02-22T10:42:39.857Z,11.30
2023-02-22T10:45:16.887Z,11.40
2023-02-22T10:47:43.661Z,11.50
2023-02-22T10:50:12.919Z,11.60
2023-02-22T10:52:39.516Z,11.70
2023-02-22T10:55:15.556Z,11.80
2023-02-22T10:57:45.332Z,11.90
2023-02-22T11:00:30.448Z,12.10
2023-02-22T11:02:58.618Z,12.10
2023-02-22T11:05:33.221Z,12.20
2023-02-22T11:08:23.578Z,12.30
2023-02-22T11:10:51.665Z,12.40
2023-02-22T11:13:18.505Z,12.60
2023-02-22T11:15:45.275Z,12.60
2023-02-22T11:18:26.525Z,13.00
2023-02-22T11:21:00.537Z,12.70
2023-02-22T11:23:27.646Z,12.80
2023-02-22T11:26:08.760Z,12.90
2023-02-22T11:28:36.155Z,12.90
2023-02-22T11:31:15.367Z,12.90
2023-02-22T11:33:48.297Z,12.90
2023-02-22T11:36:28.964Z,12.90
2023-02-22T11:38:58.377Z,14.40
2023-02-22T11:41:28.941Z,13.00
2023-02-22T11:44:11.450Z,13.10
2023-02-22T11:46:40.348Z,13.00
2023-02-22T11:49:09.070Z,14.10
2023-02-22T11:51:49.283Z,15.60
2023-02-22T11:54:32.393Z,13.20
2023-02-22T11:57:01.708Z,13.30
2023-02-22T11:59:57.740Z,13.40
2023-02-22T12:02:33.187Z,15.00
2023-02-22T12:05:18.393Z,13.40
2023-02-22T12:08:13.870Z,13.50
2023-02-22T12:10:50.053Z,13.50
2023-02-22T12:13:36.670Z,13.60
2023-02-22T12:16:17.411Z,13.60
2023-02-22T12:19:02.483Z,13.70
2023-02-22T12:21:29.960Z,13.70
2023-02-22T12:23:59.684Z,13.80
2023-02-22T12:26:43.583Z,13.80
2023-02-22T12:29:28.971Z,13.80
2023-02-22T12:32:07.808Z,13.80
2023-02-22T12:34:38.037Z,13.80
2023-02-22T12:37:11.282Z,13.90
2023-02-22T12:39:53.633Z,14.00
2023-02-22T12:42:39.467Z,13.80
2023-02-22T12:45:16.905Z,13.80
2023-02-22T12:47:48.936Z,13.70
2023-02-22T12:50:23.277Z,13.60
2023-02-22T12:52:56.093Z,13.60
2023-02-22T12:55:25.783Z,13.50
2023-02-22T12:57:57.099Z,13.60
2023-02-22T13:00:29.955Z,13.60
2023-02-22T13:02:59.178Z,11.00
2023-02-22T13:05:26.158Z,13.70
2023-02-22T13:07:58.689Z,15.60
2023-02-22T13:10:43.999Z,13.80
2023-02-22T13:13:16.206Z,14.00
2023-02-22T13:15:42.895Z,15.20
2023-02-22T13:18:12.547Z,14.20
2023-02-22T13:20:41.944Z,14.10
2023-02-22T13:23:08.480Z,14.40
2023-02-22T13:25:48.320Z,14.10
2023-02-22T13:28:18.100Z,14.10
2023-02-22T13:30:49.439Z,14.10
2023-02-22T13:33:25.146Z,15.70
2023-02-22T13:35:54.781Z,14.00
2023-02-22T13:38:21.322Z,14.00
2023-02-22T13:40:47.960Z,14.10
2023-02-22T13:43:23.783Z,14.20
2023-02-22T13:46:17.984Z,14.60
2023-02-22T13:49:04.303Z,14.10
2023-02-22T13:51:33.660Z,14.20
2023-02-22T13:54:16.269Z,14.10
2023-02-22T13:56:43.635Z,14.20
2023-02-22T13:59:23.906Z,14.30
2023-02-22T14:01:53.314Z,14.40
2023-02-22T14:04:22.911Z,15.70
2023-02-22T14:06:49.742Z,14.40
2023-02-22T14:09:19.884Z,16.20
2023-02-22T14:11:47.563Z,16.00
2023-02-22T14:14:17.144Z,15.00
2023-02-22T14:16:44.020Z,16.70
2023-02-22T14:19:13.347Z,14.30
2023-02-22T14:22:02.078Z,14.20
2023-02-22T14:24:30.415Z,14.20
2023-02-22T14:26:57.011Z,14.10
2023-02-22T14:29:23.679Z,16.00
2023-02-22T14:31:50.788Z,14.80
2023-02-22T14:34:18.755Z,16.00
2023-02-22T14:36:54.823Z,14.90
2023-02-22T14:39:24.547Z,14.10
2023-02-22T14:41:54.234Z,14.00
2023-02-22T14:44:23.821Z,14.00
2023-02-22T14:46:51.949Z,14.50
2023-02-22T14:49:21.044Z,15.00
2023-02-22T14:51:53.833Z,15.70
2023-02-22T14:54:30.457Z,13.90
2023-02-22T14:57:14.823Z,13.90
2023-02-22T14:59:52.572Z,13.80
2023-02-22T15:02:20.389Z,13.80
2023-02-22T15:04:51.107Z,14.70
2023-02-22T15:07:28.817Z,13.70
2023-02-22T15:10:06.029Z,13.70
2023-02-22T15:12:32.751Z,13.70
2023-02-22T15:15:21.855Z,13.70
2023-02-22T15:17:56.062Z,13.60
2023-02-22T15:20:25.036Z,13.50
2023-02-22T15:22:51.964Z,14.40
2023-02-22T15:25:24.659Z,14.00
2023-02-22T15:27:51.604Z,13.40
2023-02-22T15:30:22.302Z,14.80
2023-02-22T15:33:03.116Z,13.30
2023-02-22T15:35:31.182Z,15.00
2023-02-22T15:37:59.324Z,14.60
2023-02-22T15:40:32.956Z,14.20
2023-02-22T15:43:02.225Z,13.00
2023-02-22T15:45:29.164Z,13.00
2023-02-22T15:47:56.131Z,12.90
2023-02-22T15:50:27.622Z,14.40
2023-02-22T15:52:54.258Z,12.80
2023-02-22T15:55:25.684Z,12.80
2023-02-22T15:57:52.679Z,12.70
2023-02-22T16:00:20.935Z,13.90
2023-02-22T16:02:47.906Z,12.60
2023-02-22T16:05:18.297Z,12.50
2023-02-22T16:07:49.357Z,12.50
2023-02-22T16:10:27.452Z,12.40
2023-02-22T16:13:07.610Z,12.40
2023-02-22T16:15:34.811Z,12.30
2023-02-22T16:18:18.502Z,12.60
2023-02-22T16:20:45.161Z,12.20
2023-02-22T16:23:25.526Z,12.20
2023-02-22T16:26:02.316Z,12.10
2023-02-22T16:28:35.610Z,12.00
2023-02-22T16:31:03.132Z,12.00
2023-02-22T16:33:33.583Z,11.90
2023-02-22T16:36:05.841Z,11.80
2023-02-22T16:38:33.436Z,11.70
2023-02-22T16:41:00.012Z,11.70
2023-02-22T16:43:33.271Z,11.60
2023-02-22T16:46:03.435Z,11.60
2023-02-22T16:48:31.102Z,11.50
2023-02-22T16:50:59.976Z,13.50
2023-02-22T16:53:27.449Z,11.40
2023-02-22T16:55:57.645Z,11.40
2023-02-22T16:58:27.891Z,12.60
2023-02-22T17:00:57.225Z,11.20
2023-02-22T17:03:24.494Z,12.60
2023-02-22T17:05:51.338Z,11.20
2023-02-22T17:08:17.971Z,11.00
2023-02-22T17:10:46.403Z,11.00
2023-02-22T17:13:23.088Z,10.90
2023-02-22T17:15:51.789Z,11.00
2023-02-22T17:18:22.667Z,11.00
2023-02-22T17:20:49.678Z,10.90
2023-02-22T17:23:16.656Z,11.00
2023-02-22T17:25:44.423Z,10.90
2023-02-22T17:28:11.450Z,10.90
2023-02-22T17:30:38.397Z,12.10
2023-02-22T17:33:06.480Z,10.80
2023-02-22T17:35:37.426Z,10.70
2023-02-22T17:38:08.189Z,13.30
2023-02-22T17:40:36.235Z,10.60
2023-02-22T17:43:03.057Z,11.20
2023-02-22T17:45:30.206Z,10.50
2023-02-22T17:47:59.135Z,10.40
2023-02-22T17:50:26.380Z,10.30
2023-02-22T17:52:53.007Z,10.10
2023-02-22T17:55:20.367Z,10.10
2023-02-22T17:57:48.771Z,9.90
2023-02-22T18:00:23.244Z,9.90
2023-02-22T18:02:50.837Z,9.80
2023-02-22T18:05:18.102Z,9.70
2023-02-22T18:07:45.480Z,9.60
2023-02-22T18:10:12.442Z,9.60
2023-02-22T18:12:39.604Z,12.20
2023-02-22T18:15:07.879Z,9.70
2023-02-22T18:17:35.919Z,9.60
2023-02-22T18:20:02.605Z,9.60
2023-02-22T18:22:29.344Z,9.70
2023-02-22T18:25:00.176Z,9.60
2023-02-22T18:27:30.090Z,9.60
2023-02-22T18:29:56.681Z,9.60
2023-02-22T18:32:23.448Z,9.60
2023-02-22T18:34:50.312Z,9.60
2023-02-22T18:37:20.404Z,9.60
2023-02-22T18:39:47.000Z,9.60
2023-02-22T18:42:15.084Z,9.60
2023-02-22T18:44:41.667Z,9.60
2023-02-22T18:47:08.387Z,9.60
2023-02-22T18:49:34.945Z,9.60
2023-02-22T18:52:01.539Z,11.10
2023-02-22T18:54:28.168Z,9.60
2023-02-22T18:56:54.804Z,9.60
2023-02-22T18:59:21.435Z,10.70
2023-02-22T19:01:49.152Z,9.60
2023-02-22T19:04:18.127Z,9.60
2023-02-22T19:06:45.404Z,9.50
2023-02-22T19:09:12.123Z,9.50
2023-02-22T19:11:44.605Z,9.60
2023-02-22T19:14:11.378Z,9.80
2023-02-22T19:16:38.640Z,9.60
2023-02-22T19:19:05.667Z,9.60
2023-02-22T19:21:32.572Z,10.70
2023-02-22T19:23:59.166Z,9.60
2023-02-22T19:26:26.494Z,9.60
2023-02-22T19:28:54.216Z,9.50
2023-02-22T19:31:22.966Z,10.90
2023-02-22T19:33:52.867Z,9.50
2023-02-22T19:36:20.354Z,9.50
2023-02-22T19:38:47.062Z,9.50
2023-02-22T19:41:18.219Z,9.50
2023-02-22T19:43:48.523Z,9.50
2023-02-22T19:46:17.803Z,9.40
2023-02-22T19:48:45.296Z,9.40
2023-02-22T19:51:12.701Z,9.40
2023-02-22T19:53:40.947Z,9.40
2023-02-22T19:56:09.513Z,9.40
2023-02-22T19:58:37.483Z,9.30
2023-02-22T20:01:24.334Z,9.30
2023-02-22T20:03:55.087Z,9.30
2023-02-22T20:06:23.112Z,9.30
2023-02-22T20:08:51.048Z,10.00
2023-02-22T20:11:18.109Z,9.20
2023-02-22T20:13:44.997Z,9.20
2023-02-22T20:16:15.578Z,9.20
2023-02-22T20:18:46.527Z,9.30
2023-02-22T20:21:17.647Z,9.20
2023-02-22T20:23:44.516Z,9.20
2023-02-22T20:26:18.664Z,9.20
2023-02-22T20:28:45.440Z,9.20
2023-02-22T20:31:13.753Z,10.00
2023-02-22T20:33:45.775Z,9.10
2023-02-22T20:36:16.967Z,9.10
2023-02-22T20:38:44.117Z,9.10
2023-02-22T20:41:21.044Z,9.00
2023-02-22T20:43:51.147Z,9.00
2023-02-22T20:46:17.973Z,9.00
2023-02-22T20:48:44.644Z,9.00
2023-02-22T20:51:12.257Z,8.90
2023-02-22T20:53:42.048Z,8.90
2023-02-22T20:56:15.061Z,8.90
2023-02-22T20:58:42.083Z,8.80
2023-02-22T21:01:12.132Z,8.80
2023-02-22T21:03:38.780Z,8.80
2023-02-22T21:06:05.718Z,10.00
2023-02-22T21:08:32.795Z,8.60
2023-02-22T21:10:59.683Z,8.60
2023-02-22T21:13:26.350Z,8.60
2023-02-22T21:15:53.123Z,8.50
2023-02-22T21:18:20.554Z,8.60
2023-02-22T21:20:48.263Z,8.60
2023-02-22T21:23:15.453Z,8.50
2023-02-22T21:25:51.482Z,8.50
2023-02-22T21:28:18.034Z,8.50
2023-02-22T21:30:45.108Z,8.50
2023-02-22T21:33:11.815Z,8.50
2023-02-22T21:35:40.478Z,10.10
2023-02-22T21:38:07.189Z,8.50
2023-02-22T21:40:34.349Z,8.40
2023-02-22T21:43:01.046Z,8.40
2023-02-22T21:45:27.965Z,8.40
2023-02-22T21:47:54.696Z,8.40
2023-02-22T21:50:21.396Z,8.40
2023-02-22T21:52:48.557Z,8.30
2023-02-22T21:55:15.793Z,8.40
2023-02-22T21:57:42.531Z,8.30
2023-02-22T22:00:32.957Z,8.30
2023-02-22T22:02:59.582Z,8.10
2023-02-22T22:05:35.275Z,8.30
2023-02-22T22:08:01.921Z,8.30
2023-02-22T22:10:29.402Z,8.30
2023-02-22T22:12:58.187Z,8.30
2023-02-22T22:15:24.963Z,8.20
2023-02-22T22:17:52.227Z,8.20
2023-02-22T22:20:18.794Z,8.20
2023-02-22T22:22:46.299Z,8.20
2023-02-22T22:25:14.255Z,8.20
2023-02-22T22:27:40.992Z,8.30
2023-02-22T22:30:08.147Z,8.20
2023-02-22T22:32:34.994Z,8.20
2023-02-22T22:35:01.658Z,8.20
2023-02-22T22:37:28.424Z,8.20
2023-02-22T22:39:55.180Z,8.20
2023-02-22T22:42:22.071Z,8.20
2023-02-22T22:44:50.468Z,8.10
2023-02-22T22:47:18.308Z,8.10
2023-02-22T22:49:45.307Z,8.10
2023-02-22T22:52:16.385Z,9.40
2023-02-22T22:54:43.488Z,8.20
2023-02-22T22:57:10.994Z,8.10
2023-02-22T22:59:37.549Z,8.10
2023-02-22T23:02:09.715Z,8.00
2023-02-22T23:04:37.974Z,8.10
2023-02-22T23:07:06.401Z,8.10
2023-02-22T23:09:34.928Z,8.50
2023-02-22T23:12:09.169Z,8.00
2023-02-22T23:14:37.346Z,8.00
2023-02-22T23:17:05.284Z,7.90
2023-02-22T23:19:32.732Z,8.00
2023-02-22T23:21:59.449Z,8.00
2023-02-22T23:24:28.959Z,6.20
2023-02-22T23:27:00.144Z,7.90
2023-02-22T23:29:28.740Z,7.90
2023-02-22T23:31:55.601Z,7.90
2023-02-22T23:34:23.130Z,7.90
2023-02-22T23:36:50.567Z,8.00
2023-02-22T23:39:20.485Z,7.90
2023-02-22T23:41:54.325Z,8.00
2023-02-22T23:44:21.882Z,8.00
2023-02-22T23:46:49.288Z,8.00
2023-02-22T23:49:20.589Z,8.00
2023-02-22T23:51:47.727Z,8.00
2023-02-22T23:54:15.775Z,8.00
2023-02-22T23:56:56.608Z,8.00
2023-02-22T23:59:24.971Z,8.10
